CheckWX is a tool to help pilots better visualize weather data.  It is not intended as a substitute for an official pre-flight weather briefing.

09:57:20 UTC

KSLG METAR
Smith Field Airport
Siloam Springs, Arkansas, USA
Current

1 hour ago

KSLG 250856Z AUTO 11004KT 10SM OVC012 22/21 A2996 RMK AO2 SLP134 T02170206 57013
Observed
Aug-25 @ 08:56 UTC
Wind
  • 110° at 4 KTS
Visibility
10 SM
Flight Rules
MVFR
Cloud Levels
  • Overcast at 1,200' AGL
Temperature
22°C / 72°F
Dewpoint
21°C / 70°F
Humidity
94%
Altimeter
29.96" Hg
Pressure
1014.52 hPa
Previous

2 hours ago

KSLG 250756Z AUTO 12005KT 10SM OVC014 22/21 A2997 RMK AO2 SLP137 T02170206
Observed
Aug-25 @ 07:56 UTC
Wind
  • 120° at 5 KTS
Visibility
10 SM
Flight Rules
MVFR
Cloud Levels
  • Overcast at 1,400' AGL
Temperature
22°C / 72°F
Dewpoint
21°C / 70°F
Humidity
94%
Altimeter
29.97" Hg
Pressure
1014.92 hPa
Previous

3 hours ago

KSLG 250656Z AUTO 11005KT 10SM OVC014 22/21 A2999 RMK AO2 SLP144 T02170206
Observed
Aug-25 @ 06:56 UTC
Wind
  • 110° at 5 KTS
Visibility
10 SM
Flight Rules
MVFR
Cloud Levels
  • Overcast at 1,400' AGL
Temperature
22°C / 72°F
Dewpoint
21°C / 70°F
Humidity
94%
Altimeter
29.99" Hg
Pressure
1015.62 hPa